Terminal Aerodrome Forecast
Issued by NWS Louisville, KY

Home | Current Version | Previous Version | Text Only | Print | Product List | Glossary On
Versions: 1 2 3 4 5 6 7 8 9 10 11 12 13 14 15 16 17 18 19
000
FTUS43 KLMK 192320
TAFSDF
TAF
KSDF 192320Z 2000/2106 19014G21KT P6SM SCT060
     FM200100 19012KT P6SM BKN200 WS020/20040KT
     FM200500 19015G22KT P6SM BKN200 WS020/20045KT
     FM201600 20020G30KT P6SM SCT060
     FM210100 19013KT P6SM BKN050=

USA.gov is the U.S. government's official web portal to all federal, state and local government web resources and services.